Time;durP1;ratioP1;P1;durP2;ratioP2;P2;SDS_P1;SDS_P2;PMS_P1;PMS_P2;Temp;Humidity;BMP_temperature;BMP_pressure;BME280_temperature;BME280_humidity;BME280_pressure;Samples;Min_cycle;Max_cycle;Signal;HPM_P1;HPM_P2
2021/06/17 00:00:14;;;;;;;6.87;6.30;;;22.90;93.10;;;;;;5073876;28;20298;-70
2021/06/17 00:02:40;;;;;;;7.67;6.80;;;22.90;93.20;;;;;;5073843;28;20390;-70
2021/06/17 00:05:08;;;;;;;6.23;5.77;;;22.90;93.50;;;;;;5073630;28;20420;-70
2021/06/17 00:07:34;;;;;;;6.13;5.40;;;22.90;93.50;;;;;;5073739;28;20148;-70
2021/06/17 00:10:00;;;;;;;6.27;5.67;;;22.90;93.50;;;;;;5073953;28;20522;-70
2021/06/17 00:12:26;;;;;;;6.00;5.50;;;22.90;93.80;;;;;;5073718;28;20401;-70
2021/06/17 00:14:51;;;;;;;6.93;6.30;;;22.80;94.40;;;;;;5074131;28;20171;-70
2021/06/17 00:17:18;;;;;;;7.33;6.73;;;22.80;94.90;;;;;;5073581;28;20239;-70
2021/06/17 00:19:45;;;;;;;5.87;5.37;;;22.70;95.80;;;;;;5073584;28;20710;-70
2021/06/17 00:22:11;;;;;;;6.40;5.80;;;22.70;96.70;;;;;;5074137;28;20776;-70
2021/06/17 00:24:36;;;;;;;6.50;5.80;;;22.60;97.70;;;;;;5073285;28;20415;-70
2021/06/17 00:27:02;;;;;;;8.40;6.10;;;22.60;96.40;;;;;;5073392;28;20163;-70
2021/06/17 00:29:28;;;;;;;5.77;5.27;;;22.60;96.30;;;;;;5073677;28;20159;-70
2021/06/17 00:31:53;;;;;;;6.70;6.10;;;22.50;96.40;;;;;;5092789;28;20228;-70
2021/06/17 00:34:19;;;;;;;7.00;5.53;;;22.50;97.20;;;;;;5093702;28;20159;-70
2021/06/17 00:36:44;;;;;;;6.87;6.17;;;22.50;96.40;;;;;;5093584;28;20151;-70
2021/06/17 00:39:10;;;;;;;6.07;5.57;;;22.50;97.00;;;;;;5092659;28;20195;-70
2021/06/17 00:41:38;;;;;;;6.80;6.00;;;22.40;97.80;;;;;;5093522;28;20527;-70
2021/06/17 00:44:04;;;;;;;6.97;6.47;;;22.40;98.40;;;;;;5093762;28;20488;-70
2021/06/17 00:46:30;;;;;;;8.67;6.97;;;22.30;99.10;;;;;;5093576;28;20762;-70
2021/06/17 00:48:55;;;;;;;7.40;6.70;;;22.30;99.70;;;;;;5093426;28;20385;-70
2021/06/17 00:51:21;;;;;;;7.17;6.30;;;22.20;99.90;;;;;;5093419;28;20158;-70
2021/06/17 00:53:47;;;;;;;10.20;6.87;;;22.10;99.90;;;;;;5093298;28;20234;-70
2021/06/17 00:56:13;;;;;;;6.33;5.90;;;22.00;99.90;;;;;;5092392;28;20175;-70
2021/06/17 00:58:38;;;;;;;6.50;5.90;;;22.00;99.90;;;;;;5093432;28;20281;-70
2021/06/17 01:01:04;;;;;;;7.10;6.40;;;22.00;99.90;;;;;;5093122;28;20190;-70
2021/06/17 01:03:29;;;;;;;6.70;6.20;;;21.90;99.90;;;;;;5093116;28;20513;-70
2021/06/17 01:05:55;;;;;;;6.40;5.90;;;21.90;99.90;;;;;;5093057;28;20163;-70
2021/06/17 01:16:47;;;;;;;6.47;5.87;;;21.80;99.90;;;;;;5126518;27;20751;-71
2021/06/17 01:19:33;;;;;;;6.77;6.17;;;21.70;99.90;;;;;;5110670;28;20399;-71
2021/06/17 01:30:01;;;;;;;6.67;5.93;;;21.70;99.90;;;;;;5139056;27;20335;-70
2021/06/17 01:32:27;;;;;;;7.17;6.47;;;21.50;99.90;;;;;;5131222;28;20391;-70
2021/06/17 01:34:55;;;;;;;7.13;6.43;;;21.50;99.90;;;;;;5131249;28;20394;-70
2021/06/17 01:37:25;;;;;;;7.27;6.63;;;21.50;99.90;;;;;;5130909;28;20395;-70
2021/06/17 01:39:53;;;;;;;9.13;7.60;;;21.50;99.90;;;;;;5131031;28;20388;-70
2021/06/17 01:42:23;;;;;;;7.30;6.40;;;21.40;99.90;;;;;;5131065;28;20383;-70
2021/06/17 01:44:49;;;;;;;7.07;6.30;;;21.40;99.90;;;;;;5131003;28;20419;-70
2021/06/17 01:47:15;;;;;;;7.23;6.63;;;21.40;99.90;;;;;;5116262;28;20411;-70
2021/06/17 01:49:42;;;;;;;7.17;6.50;;;21.30;99.90;;;;;;5110310;28;20443;-70
2021/06/17 01:52:08;;;;;;;11.07;6.43;;;21.30;99.90;;;;;;5110177;28;20415;-70
2021/06/17 01:54:40;;;;;;;6.90;6.20;;;21.30;99.90;;;;;;5110548;28;20411;-70
2021/06/17 01:57:07;;;;;;;7.10;6.50;;;21.20;99.90;;;;;;5110480;28;20388;-70
2021/06/17 01:59:34;;;;;;;6.83;6.23;;;21.20;99.90;;;;;;5109952;28;20439;-70
2021/06/17 02:02:01;;;;;;;7.30;6.60;;;21.20;99.90;;;;;;5110143;28;20404;-70
2021/06/17 02:04:28;;;;;;;7.40;6.70;;;21.10;99.90;;;;;;5109959;28;20415;-70
2021/06/17 02:06:55;;;;;;;7.00;6.40;;;21.10;99.90;;;;;;5110286;28;20497;-70
2021/06/17 02:09:24;;;;;;;8.30;6.57;;;21.10;99.90;;;;;;5109952;28;20453;-70
2021/06/17 02:11:51;;;;;;;9.67;6.83;;;21.10;99.90;;;;;;5109959;28;20392;-70
2021/06/17 02:14:18;;;;;;;8.33;7.50;;;21.00;99.90;;;;;;5110050;28;20447;-70
2021/06/17 02:16:44;;;;;;;8.07;7.23;;;21.00;99.90;;;;;;5109792;28;20392;-70
2021/06/17 02:19:12;;;;;;;7.40;6.80;;;21.00;99.90;;;;;;5110291;28;20447;-70
2021/06/17 02:21:38;;;;;;;8.37;6.43;;;20.90;99.90;;;;;;5109688;28;20411;-71
2021/06/17 02:24:08;;;;;;;8.47;7.67;;;20.90;99.90;;;;;;5109749;28;20492;-71
2021/06/17 02:26:35;;;;;;;7.80;7.00;;;20.90;99.90;;;;;;5109864;28;20587;-71
2021/06/17 02:29:02;;;;;;;7.93;7.13;;;20.90;99.90;;;;;;5109381;28;20540;-71
2021/06/17 02:31:31;;;;;;;7.63;6.83;;;20.80;99.90;;;;;;5109609;28;20427;-71
2021/06/17 02:33:57;;;;;;;7.07;6.47;;;20.80;99.90;;;;;;5109560;28;20408;-71
2021/06/17 02:36:25;;;;;;;7.37;6.70;;;20.80;99.90;;;;;;5109372;28;20411;-71
2021/06/17 02:38:55;;;;;;;7.70;6.90;;;20.80;99.90;;;;;;5109460;28;20770;-71
2021/06/17 02:41:23;;;;;;;7.33;6.70;;;20.80;99.90;;;;;;5095603;28;20396;-71
2021/06/17 02:43:53;;;;;;;7.57;6.90;;;20.80;99.90;;;;;;5095785;28;20499;-71
2021/06/17 02:46:20;;;;;;;6.20;5.70;;;20.70;99.90;;;;;;5095661;28;20401;-71
2021/06/17 02:48:46;;;;;;;6.60;5.93;;;20.70;99.90;;;;;;5095646;28;20444;-71
2021/06/17 02:51:11;;;;;;;7.40;6.27;;;20.70;99.90;;;;;;5095619;28;20396;-71
2021/06/17 02:53:37;;;;;;;6.13;5.50;;;20.70;99.90;;;;;;5096296;28;20171;-69
2021/06/17 02:56:10;;;;;;;6.77;6.07;;;20.70;99.90;;;;;;5095607;28;20178;-69
2021/06/17 03:01:51;;;;;;;5.27;4.87;;;20.60;99.90;;;;;;5147765;27;20359;-71
2021/06/17 03:04:24;;;;;;;5.67;5.17;;;20.70;99.90;;;;;;5130223;28;20750;-70
2021/06/17 03:06:51;;;;;;;6.93;5.90;;;20.70;99.90;;;;;;5131313;28;20389;-70
2021/06/17 03:09:22;;;;;;;8.03;5.47;;;20.70;99.90;;;;;;5131167;28;20472;-70
2021/06/17 03:11:51;;;;;;;6.20;5.10;;;20.70;99.90;;;;;;5121255;28;20408;-70
2021/06/17 03:14:23;;;;;;;6.07;5.57;;;20.80;99.90;;;;;;5110706;28;20385;-70
2021/06/17 03:16:53;;;;;;;6.00;5.50;;;20.80;99.90;;;;;;5110519;28;20435;-71
2021/06/17 03:19:20;;;;;;;7.83;7.13;;;20.70;99.90;;;;;;5110336;28;20462;-70
2021/06/17 03:21:51;;;;;;;6.23;5.60;;;20.70;99.90;;;;;;5110375;28;20388;-70
2021/06/17 03:24:20;;;;;;;8.20;5.40;;;20.70;99.90;;;;;;5110472;28;20908;-71
2021/06/17 03:26:47;;;;;;;5.43;4.93;;;20.80;99.90;;;;;;5110284;28;20407;-70
2021/06/17 03:29:16;;;;;;;7.30;5.37;;;20.80;99.90;;;;;;5116207;28;20879;-70
2021/06/17 03:31:42;;;;;;;6.23;5.70;;;20.80;99.90;;;;;;5130650;28;20384;-70
2021/06/17 03:34:09;;;;;;;6.20;5.60;;;20.80;99.90;;;;;;5130485;28;20391;-70
2021/06/17 03:36:36;;;;;;;6.53;5.37;;;20.80;99.90;;;;;;5130619;28;20157;-70
2021/06/17 03:39:04;;;;;;;5.90;5.37;;;20.80;99.90;;;;;;5130837;28;20538;-71
2021/06/17 03:41:30;;;;;;;5.80;5.30;;;20.80;99.90;;;;;;5130421;28;20903;-70
2021/06/17 03:43:57;;;;;;;5.70;5.00;;;20.80;99.90;;;;;;5130601;28;20379;-70
2021/06/17 03:46:23;;;;;;;6.37;5.77;;;20.80;99.90;;;;;;5129548;28;20172;-70
2021/06/17 03:48:49;;;;;;;5.80;5.07;;;20.80;99.90;;;;;;5130358;28;20752;-71
2021/06/17 03:51:15;;;;;;;6.90;4.90;;;20.70;99.90;;;;;;5130315;28;20391;-70
2021/06/17 03:53:44;;;;;;;5.50;5.00;;;20.70;99.90;;;;;;5130542;28;20419;-70
2021/06/17 03:56:12;;;;;;;5.40;5.00;;;20.90;99.90;;;;;;5130074;28;20475;-70
2021/06/17 03:58:38;;;;;;;5.40;4.90;;;20.90;99.90;;;;;;5130090;28;20439;-70
2021/06/17 04:01:06;;;;;;;6.70;6.20;;;21.00;99.90;;;;;;5130072;28;20822;-71
2021/06/17 04:03:32;;;;;;;5.57;5.07;;;21.10;99.90;;;;;;5129331;28;20169;-70
2021/06/17 04:05:59;;;;;;;5.10;4.70;;;21.20;99.90;;;;;;5129966;28;20407;-71
2021/06/17 04:08:29;;;;;;;6.40;5.33;;;21.30;99.90;;;;;;5130669;28;20410;-70
2021/06/17 04:10:58;;;;;;;4.93;4.53;;;21.60;99.90;;;;;;5126908;28;20414;-70
2021/06/17 04:13:27;;;;;;;5.97;4.93;;;21.80;99.90;;;;;;5116190;28;20392;-71
2021/06/17 04:15:55;;;;;;;5.43;4.93;;;21.90;99.90;;;;;;5116212;28;20944;-70
2021/06/17 04:18:24;;;;;;;6.70;5.00;;;22.10;99.90;;;;;;5116157;28;20804;-70
2021/06/17 04:20:52;;;;;;;5.20;4.57;;;22.20;99.90;;;;;;5115308;28;20982;-71
2021/06/17 04:23:20;;;;;;;5.07;4.67;;;22.20;99.90;;;;;;5116498;28;20493;-70
2021/06/17 04:25:48;;;;;;;6.40;5.37;;;22.30;99.90;;;;;;5115920;28;20419;-71
2021/06/17 04:28:14;;;;;;;10.10;4.27;;;22.20;99.90;;;;;;5115851;28;20396;-70
2021/06/17 04:30:41;;;;;;;4.80;4.40;;;22.30;99.90;;;;;;5115896;28;20868;-70
2021/06/17 04:33:10;;;;;;;5.37;4.77;;;22.30;99.90;;;;;;5115841;28;20389;-70
2021/06/17 04:35:37;;;;;;;5.47;4.33;;;22.40;99.90;;;;;;5115864;28;20873;-71
2021/06/17 04:38:03;;;;;;;5.00;4.30;;;22.50;99.90;;;;;;5115626;28;20961;-70
2021/06/17 04:40:29;;;;;;;6.93;4.43;;;22.50;99.90;;;;;;5115763;28;20439;-70
2021/06/17 04:42:58;;;;;;;6.50;4.77;;;22.50;99.90;;;;;;5115774;28;20380;-71
2021/06/17 04:45:27;;;;;;;5.43;4.50;;;22.50;99.90;;;;;;5115709;28;20385;-70
2021/06/17 04:47:56;;;;;;;4.87;4.47;;;22.50;99.90;;;;;;5115681;28;20762;-70
2021/06/17 04:50:22;;;;;;;6.50;4.23;;;22.60;99.80;;;;;;5115075;28;20443;-71
2021/06/17 04:55:25;;;;;;;5.80;4.27;;;22.60;99.60;;;;;;5147362;27;20807;-71
2021/06/17 04:57:51;;;;;;;5.03;4.60;;;22.80;99.10;;;;;;5131223;28;20387;-71
2021/06/17 05:00:17;;;;;;;5.20;4.57;;;22.80;98.90;;;;;;5127189;28;20201;-71
2021/06/17 05:02:42;;;;;;;8.80;4.60;;;22.90;98.80;;;;;;5127567;27;20249;-71
2021/06/17 05:05:08;;;;;;;5.30;4.80;;;22.90;98.50;;;;;;5130014;27;20200;-71
2021/06/17 05:12:57;;;;;;;4.57;4.27;;;23.30;97.50;;;;;;5122223;28;20973;-71
2021/06/17 05:15:23;;;;;;;5.63;4.00;;;23.40;97.20;;;;;;5109784;28;20525;-71
2021/06/17 05:17:48;;;;;;;5.10;4.33;;;23.40;97.10;;;;;;5111032;28;20162;-71
2021/06/17 05:20:15;;;;;;;4.93;4.40;;;23.50;96.80;;;;;;5111386;28;20407;-71
2021/06/17 05:22:42;;;;;;;4.47;4.07;;;23.50;96.70;;;;;;5110851;28;20505;-71
2021/06/17 05:25:09;;;;;;;5.43;4.47;;;23.50;96.60;;;;;;5110727;28;20396;-71
2021/06/17 05:27:36;;;;;;;4.60;4.20;;;23.60;96.30;;;;;;5110691;28;20419;-71
2021/06/17 05:30:03;;;;;;;5.17;4.30;;;23.70;96.30;;;;;;5109880;28;20448;-71
2021/06/17 05:32:29;;;;;;;4.60;4.17;;;23.80;96.00;;;;;;5110544;28;20479;-71
2021/06/17 05:34:54;;;;;;;5.13;4.40;;;23.90;95.60;;;;;;5110150;28;20500;-71
2021/06/17 05:37:20;;;;;;;8.33;4.53;;;23.90;95.70;;;;;;5110801;28;20192;-71
2021/06/17 05:39:46;;;;;;;5.40;4.50;;;23.90;95.60;;;;;;5109327;28;20614;-71
2021/06/17 05:42:11;;;;;;;5.33;4.27;;;23.90;95.30;;;;;;5117214;28;20653;-71
2021/06/17 05:44:37;;;;;;;5.60;5.10;;;24.00;95.20;;;;;;5114196;28;20181;-71
2021/06/17 05:47:03;;;;;;;6.03;4.53;;;24.10;95.00;;;;;;5108749;28;20227;-71
2021/06/17 05:49:29;;;;;;;4.53;4.20;;;24.10;94.90;;;;;;5110006;28;20198;-71
2021/06/17 05:51:54;;;;;;;5.73;4.00;;;24.20;94.80;;;;;;5111196;28;20415;-71
2021/06/17 05:54:20;;;;;;;4.83;4.30;;;24.20;94.70;;;;;;5126578;28;20190;-71
2021/06/17 05:56:46;;;;;;;3.60;3.30;;;24.20;95.10;;;;;;5108211;28;20798;-71
2021/06/17 05:59:12;;;;;;;4.93;4.43;;;24.20;95.00;;;;;;5093688;28;20319;-71
2021/06/17 06:01:37;;;;;;;4.03;3.60;;;24.20;94.60;;;;;;5083637;28;20915;-71
2021/06/17 06:04:03;;;;;;;4.70;4.40;;;24.30;94.60;;;;;;5085167;28;20182;-71
2021/06/17 06:06:29;;;;;;;5.17;4.77;;;24.40;94.40;;;;;;5081302;28;20175;-72
2021/06/17 06:08:54;;;;;;;5.30;4.90;;;24.40;94.40;;;;;;5094547;28;20577;-71
2021/06/17 06:11:20;;;;;;;5.07;4.57;;;24.50;94.10;;;;;;5086107;28;20178;-71
2021/06/17 06:13:46;;;;;;;5.00;4.57;;;24.60;94.00;;;;;;5084184;28;20175;-71
2021/06/17 06:16:13;;;;;;;4.07;3.73;;;24.70;93.90;;;;;;5076449;28;20507;-71
2021/06/17 06:18:38;;;;;;;5.07;4.53;;;24.80;93.60;;;;;;5084173;28;20585;-72
2021/06/17 06:21:04;;;;;;;4.07;3.73;;;24.80;93.30;;;;;;5075329;28;20437;-71
2021/06/17 06:23:30;;;;;;;7.30;4.07;;;24.90;93.00;;;;;;5070167;28;20175;-71
2021/06/17 06:25:57;;;;;;;5.00;4.50;;;25.00;93.00;;;;;;5072130;28;20176;-71
2021/06/17 06:28:24;;;;;;;7.73;4.40;;;25.00;92.90;;;;;;5069759;28;20694;-71
2021/06/17 06:30:51;;;;;;;4.37;4.07;;;25.10;92.70;;;;;;5075631;28;20424;-72
2021/06/17 06:33:18;;;;;;;4.77;4.33;;;25.20;92.70;;;;;;5072933;28;20417;-71
2021/06/17 06:35:44;;;;;;;4.60;4.13;;;25.20;92.50;;;;;;5082127;28;20582;-71
2021/06/17 06:38:10;;;;;;;10.53;4.67;;;25.30;92.30;;;;;;5074562;28;20462;-71
2021/06/17 06:40:36;;;;;;;5.23;4.50;;;25.40;92.10;;;;;;5072789;28;20644;-71
2021/06/17 06:43:02;;;;;;;4.10;3.70;;;25.50;91.80;;;;;;5074476;28;20478;-71
2021/06/17 06:45:29;;;;;;;8.13;4.93;;;25.70;91.50;;;;;;5074054;28;20441;-71
2021/06/17 06:47:55;;;;;;;4.60;4.20;;;25.70;92.00;;;;;;5068773;28;20180;-71
2021/06/17 06:50:21;;;;;;;3.77;3.30;;;25.70;91.70;;;;;;5072333;28;20434;-71
2021/06/17 06:52:46;;;;;;;4.67;4.20;;;25.80;91.20;;;;;;5071140;28;20578;-71
2021/06/17 06:55:13;;;;;;;6.53;3.67;;;26.00;90.90;;;;;;5073123;28;20186;-71
2021/06/17 06:57:40;;;;;;;4.27;3.93;;;26.00;90.80;;;;;;5074859;28;20211;-71
2021/06/17 07:00:09;;;;;;;5.53;4.30;;;26.10;90.80;;;;;;5071279;28;20457;-71
2021/06/17 07:02:35;;;;;;;4.30;3.90;;;26.30;90.30;;;;;;5068706;28;20440;-71
2021/06/17 07:05:02;;;;;;;5.13;4.67;;;26.30;90.40;;;;;;5074211;28;20526;-71
2021/06/17 07:07:27;;;;;;;4.47;4.07;;;26.50;89.60;;;;;;5072695;28;20171;-71
2021/06/17 07:09:53;;;;;;;4.53;4.13;;;26.60;89.50;;;;;;5071749;28;20465;-71
2021/06/17 07:12:19;;;;;;;3.57;3.27;;;26.60;90.50;;;;;;5073521;28;20179;-71
2021/06/17 07:14:45;;;;;;;5.13;3.90;;;26.70;89.80;;;;;;5074296;28;20730;-71
2021/06/17 07:17:11;;;;;;;8.60;3.73;;;26.80;90.00;;;;;;5070945;28;20152;-71
2021/06/17 07:19:39;;;;;;;4.43;4.10;;;26.90;88.10;;;;;;5069142;28;20438;-71
2021/06/17 07:22:05;;;;;;;4.43;4.00;;;27.00;88.40;;;;;;5067575;28;20258;-71
2021/06/17 07:24:31;;;;;;;3.60;3.00;;;27.30;86.80;;;;;;5067738;28;20476;-71
2021/06/17 07:26:56;;;;;;;6.60;4.10;;;27.70;86.00;;;;;;5067348;28;20194;-71
2021/06/17 07:29:22;;;;;;;7.00;4.53;;;28.40;84.20;;;;;;5072360;28;20409;-71
2021/06/17 07:31:48;;;;;;;4.80;4.23;;;29.30;80.20;;;;;;5069404;28;20603;-71
2021/06/17 07:34:14;;;;;;;4.30;3.63;;;30.30;74.90;;;;;;5072472;28;20163;-71
2021/06/17 07:36:40;;;;;;;4.10;3.40;;;31.30;74.30;;;;;;5073101;28;20432;-70
2021/06/17 07:39:09;;;;;;;3.57;3.23;;;32.40;64.90;;;;;;5069681;28;20206;-70
2021/06/17 07:41:35;;;;;;;3.57;3.27;;;33.50;58.90;;;;;;5072074;28;20414;-70
2021/06/17 07:44:02;;;;;;;5.40;3.20;;;34.60;53.80;;;;;;5071436;28;20437;-70
2021/06/17 07:46:27;;;;;;;3.87;3.40;;;35.40;50.40;;;;;;5067303;28;20914;-70
2021/06/17 07:48:53;;;;;;;6.03;3.17;;;36.20;47.20;;;;;;5069278;28;20472;-70
2021/06/17 07:51:19;;;;;;;3.13;2.83;;;37.00;44.50;;;;;;5069445;28;20175;-71
2021/06/17 07:53:44;;;;;;;4.50;2.87;;;37.80;43.70;;;;;;5072122;28;20534;-70
2021/06/17 07:56:10;;;;;;;3.80;3.30;;;38.60;42.70;;;;;;5072275;28;20202;-72
2021/06/17 07:58:36;;;;;;;3.30;3.00;;;39.20;39.20;;;;;;5066615;28;20909;-71
2021/06/17 08:01:04;;;;;;;3.13;2.83;;;39.80;39.10;;;;;;5070582;28;20229;-71
2021/06/17 08:03:30;;;;;;;3.37;3.17;;;40.30;37.20;;;;;;5072534;28;20183;-71
2021/06/17 08:05:56;;;;;;;3.93;3.47;;;40.50;36.50;;;;;;5072094;28;20433;-71
2021/06/17 08:08:22;;;;;;;3.57;3.20;;;40.60;35.50;;;;;;5065521;28;20574;-71
2021/06/17 08:10:48;;;;;;;3.20;3.00;;;40.20;37.10;;;;;;5070322;28;20175;-72
2021/06/17 08:13:14;;;;;;;3.37;3.10;;;40.60;35.30;;;;;;5069638;28;20527;-71
2021/06/17 08:15:40;;;;;;;4.60;2.80;;;41.20;35.90;;;;;;5065424;28;20278;-72
2021/06/17 08:18:08;;;;;;;2.77;2.57;;;41.80;33.00;;;;;;5068227;28;20195;-71
2021/06/17 08:20:35;;;;;;;3.20;2.47;;;42.20;32.90;;;;;;5066879;28;20170;-71
2021/06/17 08:23:00;;;;;;;3.05;2.78;;;43.20;31.40;;;;;;5070637;28;20193;-71
2021/06/17 08:25:26;;;;;;;3.08;2.88;;;44.00;30.40;;;;;;5068622;28;20793;-72
2021/06/17 08:27:52;;;;;;;3.03;2.72;;;44.70;29.90;;;;;;5069817;28;20221;-72
2021/06/17 08:30:18;;;;;;;3.38;3.08;;;45.50;28.70;;;;;;5071227;28;20581;-72
2021/06/17 08:32:45;;;;;;;2.70;2.50;;;46.20;28.20;;;;;;5066231;28;20179;-72
2021/06/17 08:35:13;;;;;;;2.63;2.42;;;46.70;27.50;;;;;;5068852;28;20178;-72
2021/06/17 08:37:40;;;;;;;2.42;2.22;;;47.20;25.90;;;;;;5068393;28;20560;-72
2021/06/17 08:40:06;;;;;;;3.15;1.98;;;47.80;26.00;;;;;;5066988;28;20206;-72
2021/06/17 08:42:32;;;;;;;2.58;2.38;;;48.40;25.60;;;;;;5065155;28;20524;-72
2021/06/17 08:45:01;;;;;;;3.13;2.92;;;48.80;24.40;;;;;;5071323;28;20253;-72
2021/06/17 08:47:27;;;;;;;2.05;1.95;;;48.50;24.30;;;;;;5068506;28;20221;-73
2021/06/17 08:49:54;;;;;;;2.33;2.13;;;48.70;24.80;;;;;;5067915;28;20187;-72
2021/06/17 08:52:21;;;;;;;2.38;2.17;;;48.90;24.20;;;;;;5062077;28;20171;-72
2021/06/17 08:54:47;;;;;;;2.28;2.17;;;49.10;24.10;;;;;;5069465;28;20171;-73
2021/06/17 08:57:14;;;;;;;3.35;2.50;;;49.50;23.40;;;;;;5071726;28;20260;-72
2021/06/17 08:59:41;;;;;;;3.30;2.40;;;49.70;23.10;;;;;;5070621;28;20837;-72
2021/06/17 09:02:07;;;;;;;2.63;2.10;;;50.00;23.00;;;;;;5070310;28;20185;-72
2021/06/17 09:04:34;;;;;;;2.35;2.20;;;50.00;21.60;;;;;;5069566;28;20592;-72
2021/06/17 09:09:43;;;;;;;2.53;2.13;;;50.30;22.50;;;;;;5109984;27;20314;-71
2021/06/17 09:12:18;;;;;;;2.30;2.10;;;50.50;21.90;;;;;;5081602;28;20197;-71
2021/06/17 09:14:53;;;;;;;2.75;1.95;;;50.50;22.00;;;;;;5081756;28;20715;-72
2021/06/17 09:17:19;;;;;;;5.05;2.42;;;50.20;22.30;;;;;;5082964;28;20269;-71
2021/06/17 09:22:24;;;;;;;3.72;1.90;;;50.20;22.20;;;;;;5132551;27;20762;-71
2021/06/17 09:24:54;;;;;;;2.40;2.30;;;49.70;22.40;;;;;;5100207;28;20672;-73
2021/06/17 09:32:33;;;;;;;2.10;2.00;;;49.00;22.60;;;;;;5117128;27;20313;-72
2021/06/17 09:34:59;;;;;;;2.63;2.42;;;48.50;22.80;;;;;;5083817;28;20247;-72
2021/06/17 09:37:29;;;;;;;2.58;2.38;;;48.00;23.40;;;;;;5083315;28;20166;-72
2021/06/17 09:39:55;;;;;;;2.50;2.40;;;47.10;24.10;;;;;;5082896;28;20174;-71
2021/06/17 09:42:28;;;;;;;2.15;2.05;;;46.90;24.90;;;;;;5087836;28;20640;-71
2021/06/17 09:44:54;;;;;;;2.15;2.05;;;46.20;25.20;;;;;;5086203;28;20545;-72
2021/06/17 09:47:22;;;;;;;3.60;2.17;;;45.80;25.40;;;;;;5084797;28;20182;-71
2021/06/17 09:49:49;;;;;;;2.55;2.40;;;45.20;25.90;;;;;;5082101;28;20631;-71
2021/06/17 09:52:16;;;;;;;2.42;2.22;;;45.00;26.30;;;;;;5086822;28;20190;-71
2021/06/17 09:54:43;;;;;;;2.15;1.65;;;44.70;26.70;;;;;;5089904;28;20186;-71
2021/06/17 09:57:11;;;;;;;2.80;2.60;;;44.30;27.20;;;;;;5086922;28;20159;-71
2021/06/17 10:05:07;;;;;;;2.65;2.25;;;42.80;28.20;;;;;;5136015;27;20352;-74
2021/06/17 10:07:34;;;;;;;2.92;2.72;;;42.50;28.30;;;;;;5103899;28;20166;-72
2021/06/17 10:10:00;;;;;;;3.00;2.40;;;42.10;29.10;;;;;;5097185;28;20169;-71
2021/06/17 10:12:25;;;;;;;3.67;2.90;;;41.80;29.40;;;;;;5091982;28;20182;-74
2021/06/17 10:14:51;;;;;;;2.50;2.30;;;41.60;30.50;;;;;;5097988;28;20390;-71
2021/06/17 10:17:17;;;;;;;3.00;2.80;;;41.00;30.10;;;;;;5095519;28;20173;-71
2021/06/17 10:19:43;;;;;;;3.40;3.10;;;40.80;30.50;;;;;;5089582;28;20191;-71
2021/06/17 10:22:10;;;;;;;3.97;2.70;;;40.60;31.20;;;;;;5100948;28;20661;-71
2021/06/17 10:24:39;;;;;;;2.50;2.30;;;40.30;30.40;;;;;;5104588;28;20486;-71
2021/06/17 10:27:09;;;;;;;3.20;2.83;;;40.00;30.40;;;;;;5105244;28;20447;-71
2021/06/17 10:29:39;;;;;;;3.63;2.77;;;39.70;30.90;;;;;;5100440;28;20457;-71
2021/06/17 10:32:06;;;;;;;4.17;3.17;;;39.40;31.80;;;;;;5106785;28;20470;-71
2021/06/17 10:34:36;;;;;;;3.70;3.40;;;39.00;32.90;;;;;;5089599;28;20851;-71
2021/06/17 10:42:27;;;;;;;3.73;3.37;;;38.60;33.40;;;;;;5138275;27;20544;-71
2021/06/17 10:50:32;;;;;;;4.03;3.73;;;37.50;33.60;;;;;;5110414;27;20304;-72
2021/06/17 10:53:23;;;;;;;3.97;3.57;;;36.20;36.30;;;;;;5076711;28;20500;-71
2021/06/17 11:04:09;;;;;;;3.77;3.47;;;35.40;37.60;;;;;;5132361;27;20297;-71
2021/06/17 11:14:57;;;;;;;3.83;3.53;;;34.50;39.50;;;;;;5134493;27;20282;-72
2021/06/17 11:20:20;;;;;;;2.90;2.70;;;33.80;40.30;;;;;;5140330;27;20298;-72
2021/06/17 11:22:49;;;;;;;3.17;2.97;;;33.50;40.30;;;;;;5107742;28;20415;-71
2021/06/17 11:35:57;;;;;;;3.80;3.50;;;33.30;39.80;;;;;;5126766;27;20305;-71
2021/06/17 11:40:59;;;;;;;4.57;3.60;;;32.80;40.50;;;;;;5129902;27;20285;-72
2021/06/17 11:43:27;;;;;;;3.20;2.90;;;32.70;40.80;;;;;;5118065;28;20499;-71
2021/06/17 11:45:54;;;;;;;9.33;8.53;;;32.70;41.50;;;;;;5110205;28;20491;-72
2021/06/17 11:48:21;;;;;;;3.83;3.53;;;32.60;41.30;;;;;;5108394;28;20415;-72
2021/06/17 11:50:49;;;;;;;2.60;2.40;;;32.60;40.60;;;;;;5116784;28;20404;-72
2021/06/17 11:53:16;;;;;;;3.00;2.80;;;32.50;40.40;;;;;;5115834;28;20407;-72
2021/06/17 11:55:51;;;;;;;4.00;3.30;;;32.50;41.00;;;;;;5113225;28;20466;-71
2021/06/17 11:58:19;;;;;;;3.27;3.07;;;32.50;42.00;;;;;;5120442;27;20420;-71
2021/06/17 12:00:45;;;;;;;3.50;3.20;;;32.40;41.30;;;;;;5112655;28;20444;-72
2021/06/17 12:03:20;;;;;;;2.90;2.67;;;32.40;41.20;;;;;;5108124;28;20502;-72
2021/06/17 12:05:47;;;;;;;3.93;3.60;;;32.40;41.60;;;;;;5107925;28;20423;-72
2021/06/17 12:08:13;;;;;;;1.97;1.87;;;32.30;41.30;;;;;;5118144;28;20407;-71
2021/06/17 12:10:41;;;;;;;2.87;2.67;;;32.40;40.70;;;;;;5121246;27;20795;-72
2021/06/17 12:13:09;;;;;;;3.60;3.10;;;32.30;41.30;;;;;;5113419;27;20200;-72
2021/06/17 12:15:40;;;;;;;4.63;2.93;;;32.30;42.40;;;;;;5117460;27;20434;-72
2021/06/17 12:18:12;;;;;;;3.93;2.40;;;32.30;41.80;;;;;;5118854;28;20489;-72
2021/06/17 12:20:40;;;;;;;2.63;2.20;;;32.30;42.40;;;;;;5117703;28;20461;-72
2021/06/17 12:25:48;;;;;;;2.10;1.97;;;32.20;42.10;;;;;;5097906;27;20280;-72
2021/06/17 12:28:15;;;;;;;2.97;2.70;;;32.20;41.20;;;;;;5058676;28;20573;-72
2021/06/17 12:30:45;;;;;;;6.43;4.13;;;32.10;42.10;;;;;;5058802;28;20429;-72
2021/06/17 12:36:13;;;;;;;1.90;1.80;;;32.00;42.60;;;;;;5137326;27;20344;-71
2021/06/17 12:38:40;;;;;;;2.87;2.30;;;32.00;42.90;;;;;;5102125;28;20750;-71
2021/06/17 12:41:12;;;;;;;2.90;2.70;;;31.90;42.40;;;;;;5106112;28;20470;-71
2021/06/17 12:43:55;;;;;;;1.80;1.70;;;31.80;43.80;;;;;;5102782;28;20431;-71
2021/06/17 12:46:26;;;;;;;1.90;1.80;;;31.80;43.60;;;;;;5103682;28;20431;-71
2021/06/17 12:52:06;;;;;;;3.23;2.53;;;31.60;43.10;;;;;;5133971;27;20291;-72
2021/06/17 12:54:34;;;;;;;3.93;3.63;;;31.50;44.10;;;;;;5103834;28;20793;-72
2021/06/17 12:57:17;;;;;;;1.70;1.60;;;31.50;45.00;;;;;;5102712;28;20521;-72
2021/06/17 13:00:04;;;;;;;3.70;3.50;;;31.50;44.80;;;;;;5095513;28;20969;-72
2021/06/17 13:07:58;;;;;;;4.73;4.33;;;31.50;43.60;;;;;;5132165;27;20286;-72
2021/06/17 13:10:25;;;;;;;2.83;2.63;;;31.80;44.60;;;;;;5102656;28;20431;-72
2021/06/17 13:12:52;;;;;;;1.70;1.60;;;31.70;44.30;;;;;;5103325;28;20506;-72
2021/06/17 13:18:06;;;;;;;2.97;2.17;;;31.60;44.30;;;;;;5114871;27;22094;-72
2021/06/17 13:20:34;;;;;;;3.83;3.53;;;31.50;45.10;;;;;;5097542;28;20516;-72
2021/06/17 13:25:39;;;;;;;5.57;5.07;;;31.50;44.80;;;;;;5136819;27;20289;-71
2021/06/17 13:28:24;;;;;;;4.13;3.87;;;31.50;45.20;;;;;;5104770;28;20439;-71
2021/06/17 13:30:50;;;;;;;6.23;5.63;;;31.50;45.60;;;;;;5103206;28;20512;-71
2021/06/17 13:33:15;;;;;;;4.00;3.30;;;31.50;46.30;;;;;;5112469;28;21010;-71
2021/06/17 13:35:41;;;;;;;5.50;4.83;;;31.60;46.60;;;;;;5116223;28;20249;-71
2021/06/17 13:38:07;;;;;;;3.40;3.10;;;31.70;46.80;;;;;;5097200;28;20178;-71
2021/06/17 13:40:32;;;;;;;6.23;5.63;;;31.70;46.10;;;;;;5105146;28;20556;-71
2021/06/17 13:42:59;;;;;;;7.20;4.90;;;31.60;47.60;;;;;;5105324;28;20427;-71
2021/06/17 13:45:27;;;;;;;4.40;4.00;;;31.60;47.60;;;;;;5111478;28;20197;-71
2021/06/17 13:47:53;;;;;;;2.97;2.77;;;31.60;47.70;;;;;;5113171;28;20513;-71
2021/06/17 13:50:19;;;;;;;4.50;4.20;;;31.70;46.70;;;;;;5111081;28;20458;-71
2021/06/17 13:52:45;;;;;;;2.37;2.27;;;31.80;47.50;;;;;;5113579;28;20442;-71
2021/06/17 13:55:15;;;;;;;5.27;4.80;;;31.80;45.70;;;;;;5115498;28;20440;-71
2021/06/17 13:57:46;;;;;;;4.30;4.00;;;31.80;48.20;;;;;;5105398;28;20460;-71
2021/06/17 14:00:14;;;;;;;4.23;3.93;;;31.80;47.50;;;;;;5111751;28;20458;-71
2021/06/17 14:02:44;;;;;;;1.23;1.20;;;31.70;46.90;;;;;;5107322;28;20995;-71
2021/06/17 14:05:11;;;;;;;1.60;1.50;;;31.60;43.70;;;;;;5107427;28;20549;-71
2021/06/17 14:07:38;;;;;;;5.37;4.90;;;31.60;46.40;;;;;;5115035;28;21118;-71
2021/06/17 14:10:06;;;;;;;4.07;3.67;;;31.60;46.80;;;;;;5106161;28;20427;-71
2021/06/17 14:12:32;;;;;;;3.90;3.60;;;31.60;47.20;;;;;;5105220;28;20431;-71
2021/06/17 14:14:58;;;;;;;3.43;3.23;;;31.50;46.50;;;;;;5118519;28;20439;-71
2021/06/17 14:17:24;;;;;;;1.70;1.60;;;31.30;47.10;;;;;;5115535;28;20684;-71
2021/06/17 14:19:50;;;;;;;6.43;5.03;;;31.20;43.90;;;;;;5105593;28;20820;-71
2021/06/17 14:22:15;;;;;;;2.40;2.20;;;31.10;46.90;;;;;;5115195;28;20416;-71
2021/06/17 14:24:41;;;;;;;2.10;2.00;;;31.10;46.80;;;;;;5100859;28;20206;-71
2021/06/17 14:27:07;;;;;;;4.43;3.07;;;30.90;46.70;;;;;;5098870;28;20226;-71
2021/06/17 14:29:33;;;;;;;3.17;2.97;;;30.90;46.50;;;;;;5113200;28;20260;-71
2021/06/17 14:32:00;;;;;;;2.83;2.63;;;30.80;46.60;;;;;;5116444;28;20818;-71